createdAt,value
2023-04-04T00:03:51.934Z,0.82
2023-04-04T00:08:43.898Z,0.85
2023-04-04T00:13:35.762Z,1.00
2023-04-04T00:18:27.784Z,1.00
2023-04-04T00:23:20.261Z,1.10
2023-04-04T00:28:12.119Z,0.85
2023-04-04T00:33:04.714Z,1.00
2023-04-04T00:42:50.120Z,0.73
2023-04-04T00:47:43.575Z,0.70
2023-04-04T00:52:35.883Z,0.85
2023-04-04T00:57:29.268Z,0.90
2023-04-04T01:02:21.623Z,1.00
2023-04-04T01:07:13.778Z,1.00
2023-04-04T01:12:06.311Z,1.00
2023-04-04T01:16:58.580Z,0.93
2023-04-04T01:21:55.074Z,1.00
2023-04-04T01:26:47.165Z,0.73
2023-04-04T01:31:41.192Z,0.80
2023-04-04T01:36:43.468Z,0.90
2023-04-04T01:41:35.815Z,0.75
2023-04-04T01:46:29.680Z,0.90
2023-04-04T01:51:22.429Z,0.98
2023-04-04T01:56:14.658Z,0.80
2023-04-04T02:01:06.926Z,0.90
2023-04-04T02:05:58.809Z,1.00
2023-04-04T02:10:50.783Z,1.00
2023-04-04T02:15:44.665Z,0.98
2023-04-04T02:20:36.659Z,0.95
2023-04-04T02:25:28.832Z,0.88
2023-04-04T02:30:20.654Z,0.83
2023-04-04T02:35:13.702Z,0.90
2023-04-04T02:40:06.770Z,1.00
2023-04-04T02:45:02.005Z,1.10
2023-04-04T02:49:54.617Z,0.90
2023-04-04T02:54:49.853Z,0.90
2023-04-04T02:59:53.198Z,0.90
2023-04-04T03:04:45.115Z,1.00
2023-04-04T03:09:36.936Z,1.15
2023-04-04T03:14:30.048Z,1.00
2023-04-04T03:19:22.443Z,0.90
2023-04-04T03:24:16.736Z,0.70
2023-04-04T03:29:08.853Z,1.00
2023-04-04T03:34:04.420Z,0.93
2023-04-04T03:38:56.427Z,1.25
2023-04-04T03:43:50.929Z,1.00
2023-04-04T03:48:42.743Z,1.10
2023-04-04T03:58:29.100Z,1.30
2023-04-04T04:03:21.699Z,0.90
2023-04-04T04:08:14.059Z,1.20
2023-04-04T04:13:06.921Z,0.87
2023-04-04T04:17:59.439Z,0.70
2023-04-04T04:22:54.333Z,1.00
2023-04-04T04:27:46.668Z,1.02
2023-04-04T04:37:32.769Z,1.00
2023-04-04T04:42:26.139Z,1.08
2023-04-04T04:47:21.894Z,0.90
2023-04-04T04:52:14.511Z,0.95
2023-04-04T04:57:08.865Z,0.95
2023-04-04T05:02:05.433Z,0.90
2023-04-04T05:07:04.862Z,1.20
2023-04-04T05:11:57.385Z,0.90
2023-04-04T05:16:59.993Z,0.93
2023-04-04T05:21:55.822Z,0.95
2023-04-04T05:26:57.184Z,0.85
2023-04-04T05:31:49.368Z,1.00
2023-04-04T05:36:45.064Z,0.93
2023-04-04T05:41:37.844Z,0.90
2023-04-04T05:46:38.799Z,0.70
2023-04-04T05:51:32.184Z,0.75
2023-04-04T05:56:42.392Z,0.88
2023-04-04T06:01:41.375Z,0.98
2023-04-04T06:06:37.613Z,1.10
2023-04-04T06:11:30.057Z,1.00
2023-04-04T06:16:28.417Z,1.00
2023-04-04T06:21:20.470Z,0.83
2023-04-04T06:26:12.707Z,1.17
2023-04-04T06:31:07.085Z,0.90
2023-04-04T06:35:59.289Z,1.00
2023-04-04T06:40:51.209Z,1.00
2023-04-04T06:45:43.783Z,0.60
2023-04-04T06:50:39.149Z,0.90
2023-04-04T06:55:35.564Z,0.90
2023-04-04T07:00:27.436Z,0.90
2023-04-04T07:05:20.562Z,1.00
2023-04-04T07:10:12.415Z,0.98
2023-04-04T07:15:04.499Z,1.10
2023-04-04T07:19:56.310Z,0.80
2023-04-04T07:24:49.496Z,1.00
2023-04-04T07:29:41.650Z,0.75
2023-04-04T07:34:33.503Z,1.00
2023-04-04T07:39:25.354Z,0.80
2023-04-04T07:44:17.442Z,1.05
2023-04-04T07:49:11.408Z,0.83
2023-04-04T07:54:03.280Z,0.90
2023-04-04T07:58:55.361Z,0.90
2023-04-04T08:03:47.408Z,1.00
2023-04-04T08:08:41.293Z,0.90
2023-04-04T08:13:33.103Z,1.45
2023-04-04T08:18:25.025Z,0.70
2023-04-04T08:23:16.785Z,1.02
2023-04-04T08:28:08.667Z,1.10
2023-04-04T08:33:01.618Z,0.82
2023-04-04T08:37:54.709Z,0.80
2023-04-04T08:42:47.326Z,0.90
2023-04-04T08:47:40.015Z,1.13
2023-04-04T08:52:33.601Z,0.98
2023-04-04T08:57:25.609Z,0.75
2023-04-04T09:08:42.612Z,0.80
2023-04-04T09:13:34.541Z,0.90
2023-04-04T09:18:26.298Z,0.90
2023-04-04T09:23:24.067Z,0.90
2023-04-04T09:28:17.201Z,1.20
2023-04-04T09:33:12.527Z,1.98
2023-04-04T09:38:06.004Z,1.73
2023-04-04T09:43:02.004Z,2.35
2023-04-04T09:48:00.521Z,2.80
2023-04-04T09:52:56.913Z,1.50
2023-04-04T09:57:48.832Z,1.50
2023-04-04T10:02:47.569Z,1.65
2023-04-04T10:07:40.550Z,1.73
2023-04-04T10:17:31.008Z,1.48
2023-04-04T10:22:23.650Z,1.58
2023-04-04T10:27:16.308Z,1.15
2023-04-04T10:32:10.296Z,1.60
2023-04-04T10:37:12.364Z,1.30
2023-04-04T10:42:07.943Z,1.30
2023-04-04T10:47:19.806Z,1.48
2023-04-04T10:52:13.671Z,1.70
2023-04-04T10:57:05.561Z,1.00
2023-04-04T11:01:59.701Z,1.30
2023-04-04T11:07:14.875Z,1.65
2023-04-04T11:12:11.086Z,1.08
2023-04-04T11:17:05.640Z,1.08
2023-04-04T11:21:58.977Z,1.13
2023-04-04T11:26:51.066Z,1.02
2023-04-04T11:31:45.925Z,1.55
2023-04-04T11:36:37.825Z,1.20
2023-04-04T11:42:05.921Z,1.17
2023-04-04T11:47:00.739Z,1.10
2023-04-04T11:51:53.003Z,1.27
2023-04-04T11:56:45.609Z,1.30
2023-04-04T12:01:38.293Z,1.20
2023-04-04T12:06:53.844Z,1.15
2023-04-04T12:11:46.551Z,1.27
2023-04-04T12:16:38.606Z,0.85
2023-04-04T12:21:33.639Z,1.13
2023-04-04T12:26:42.705Z,0.85
2023-04-04T12:31:34.690Z,1.05
2023-04-04T12:36:29.967Z,1.10
2023-04-04T12:41:21.803Z,1.10
2023-04-04T12:46:14.760Z,1.17
2023-04-04T12:56:05.043Z,0.95
2023-04-04T13:00:59.676Z,0.95
2023-04-04T13:05:55.149Z,0.90
2023-04-04T13:11:22.436Z,1.10
2023-04-04T13:16:35.813Z,0.98
2023-04-04T13:21:27.785Z,0.80
2023-04-04T13:26:19.631Z,1.10
2023-04-04T13:31:11.928Z,1.10
2023-04-04T13:36:04.265Z,1.20
2023-04-04T13:40:58.927Z,0.90
2023-04-04T13:45:50.877Z,0.98
2023-04-04T13:50:47.044Z,0.90
2023-04-04T13:55:47.789Z,0.95
2023-04-04T14:00:49.598Z,1.25
2023-04-04T14:05:42.093Z,1.20
2023-04-04T14:10:34.335Z,0.80
2023-04-04T14:15:26.185Z,0.83
2023-04-04T14:20:18.273Z,1.52
2023-04-04T14:25:10.268Z,1.03
2023-04-04T14:30:05.765Z,0.77
2023-04-04T14:34:59.975Z,0.80
2023-04-04T14:39:51.870Z,0.98
2023-04-04T14:44:43.818Z,0.90
2023-04-04T14:49:36.304Z,0.80
2023-04-04T14:54:29.255Z,0.80
2023-04-04T15:04:18.121Z,0.70
2023-04-04T15:09:10.077Z,0.80
2023-04-04T15:14:02.017Z,0.70
2023-04-04T15:18:53.970Z,0.93
2023-04-04T15:23:47.858Z,1.00
2023-04-04T15:28:41.072Z,0.90
2023-04-04T15:33:33.456Z,0.65
2023-04-04T15:38:25.619Z,1.10
2023-04-04T15:43:17.467Z,0.80
2023-04-04T15:48:15.670Z,0.90
2023-04-04T15:53:07.563Z,0.98
2023-04-04T15:57:59.468Z,0.88
2023-04-04T16:02:53.398Z,1.00
2023-04-04T16:07:56.560Z,0.82
2023-04-04T16:17:40.227Z,0.80
2023-04-04T16:22:33.438Z,0.70
2023-04-04T16:27:25.451Z,1.10
2023-04-04T16:32:17.295Z,0.90
2023-04-04T16:37:11.642Z,0.90
2023-04-04T16:42:03.698Z,0.70
2023-04-04T16:46:56.256Z,0.80
2023-04-04T16:51:48.087Z,1.80
2023-04-04T16:56:47.035Z,1.58
2023-04-04T17:01:38.937Z,2.03
2023-04-04T17:06:31.420Z,2.13
2023-04-04T17:11:23.342Z,2.30
2023-04-04T17:16:18.587Z,1.90
2023-04-04T17:21:11.952Z,2.10
2023-04-04T17:26:04.114Z,2.63
2023-04-04T17:30:56.530Z,2.43
2023-04-04T17:35:49.434Z,1.90
2023-04-04T17:40:42.121Z,2.88
2023-04-04T17:45:34.916Z,1.95
2023-04-04T17:50:26.979Z,1.70
2023-04-04T17:55:21.231Z,2.00
2023-04-04T18:00:13.629Z,1.70
2023-04-04T18:05:07.024Z,1.87
2023-04-04T18:10:00.983Z,1.70
2023-04-04T18:14:52.931Z,2.28
2023-04-04T18:19:44.861Z,1.50
2023-04-04T18:24:38.986Z,1.60
2023-04-04T18:29:32.615Z,2.00
2023-04-04T18:34:24.594Z,1.60
2023-04-04T18:39:17.434Z,1.95
2023-04-04T18:44:09.225Z,1.73
2023-04-04T18:49:01.189Z,2.05
2023-04-04T18:53:53.080Z,1.85
2023-04-04T18:58:45.036Z,2.00
2023-04-04T19:03:42.186Z,1.33
2023-04-04T19:08:34.834Z,1.60
2023-04-04T19:13:27.243Z,1.33
2023-04-04T19:18:21.465Z,1.73
2023-04-04T19:23:13.452Z,1.65
2023-04-04T19:28:05.719Z,1.50
2023-04-04T19:32:57.651Z,1.57
2023-04-04T19:37:49.702Z,1.75
2023-04-04T19:42:41.665Z,1.60
2023-04-04T19:47:33.511Z,1.20
2023-04-04T19:52:26.455Z,1.50
2023-04-04T19:57:24.547Z,1.50
2023-04-04T20:02:34.838Z,1.27
2023-04-04T20:07:28.597Z,1.20
2023-04-04T20:12:24.161Z,1.52
2023-04-04T20:17:19.165Z,1.50
2023-04-04T20:22:11.021Z,1.48
2023-04-04T20:27:03.976Z,1.52
2023-04-04T20:31:57.412Z,1.50
2023-04-04T20:36:50.516Z,1.10
2023-04-04T20:46:37.359Z,1.50
2023-04-04T20:51:33.982Z,1.60
2023-04-04T20:56:42.303Z,1.30
2023-04-04T21:01:34.318Z,1.60
2023-04-04T21:06:29.712Z,1.00
2023-04-04T21:11:29.255Z,1.30
2023-04-04T21:16:25.283Z,1.30
2023-04-04T21:21:21.232Z,1.48
2023-04-04T21:26:33.533Z,1.33
2023-04-04T21:31:27.860Z,1.15
2023-04-04T21:36:28.600Z,1.33
2023-04-04T21:41:35.894Z,1.33
2023-04-04T21:46:31.040Z,1.30
2023-04-04T21:51:23.126Z,1.27
2023-04-04T21:56:16.890Z,1.17
2023-04-04T22:01:09.012Z,1.48
2023-04-04T22:06:00.874Z,1.27
2023-04-04T22:10:52.946Z,1.10
2023-04-04T22:15:48.608Z,0.82
2023-04-04T22:20:42.772Z,1.23
2023-04-04T22:25:34.900Z,1.13
2023-04-04T22:30:28.105Z,1.08
2023-04-04T22:35:20.226Z,1.02
2023-04-04T22:40:13.985Z,1.20
2023-04-04T22:45:06.803Z,1.23
2023-04-04T22:50:04.711Z,1.48
2023-04-04T22:54:59.639Z,1.10
2023-04-04T23:00:14.692Z,0.90
2023-04-04T23:05:08.266Z,1.15
2023-04-04T23:10:00.397Z,1.35
2023-04-04T23:14:52.621Z,0.90
2023-04-04T23:19:57.990Z,1.20
2023-04-04T23:24:49.863Z,1.05
2023-04-04T23:29:43.521Z,1.10
2023-04-04T23:34:35.713Z,1.27
2023-04-04T23:39:27.587Z,0.97
2023-04-04T23:44:19.456Z,1.13
2023-04-04T23:49:12.148Z,1.00
2023-04-04T23:54:09.519Z,1.10
2023-04-04T23:59:01.756Z,1.15
